createdAt,value
2019-02-10T00:01:29.146Z,0.00
2019-02-10T00:03:00.962Z,0.00
2019-02-10T00:04:32.775Z,0.00
2019-02-10T00:06:04.590Z,0.00
2019-02-10T00:07:36.405Z,0.00
2019-02-10T00:09:08.220Z,0.00
2019-02-10T00:10:40.038Z,0.00
2019-02-10T00:12:11.849Z,0.00
2019-02-10T00:13:43.664Z,0.00
2019-02-10T00:15:15.479Z,0.00
2019-02-10T00:16:47.395Z,0.00
2019-02-10T00:18:19.108Z,0.00
2019-02-10T00:19:50.923Z,0.00
2019-02-10T00:21:22.737Z,0.00
2019-02-10T00:22:54.554Z,0.00
2019-02-10T00:24:26.367Z,0.00
2019-02-10T00:25:58.184Z,0.00
2019-02-10T00:27:29.997Z,0.00
2019-02-10T00:29:01.813Z,0.00
2019-02-10T00:30:33.626Z,0.00
2019-02-10T00:32:05.441Z,0.00
2019-02-10T00:33:37.256Z,0.00
2019-02-10T00:35:09.175Z,0.00
2019-02-10T00:36:40.886Z,0.00
2019-02-10T00:38:12.702Z,0.00
2019-02-10T00:39:44.515Z,0.00
2019-02-10T00:41:16.333Z,0.00
2019-02-10T00:42:48.449Z,0.00
2019-02-10T00:44:19.959Z,0.00
2019-02-10T00:45:51.773Z,0.00
2019-02-10T00:47:23.587Z,0.00
2019-02-10T00:48:55.527Z,0.00
2019-02-10T00:50:27.217Z,0.00
2019-02-10T00:51:59.031Z,0.00
2019-02-10T00:53:31.095Z,0.00
2019-02-10T00:55:02.663Z,0.00
2019-02-10T00:56:34.475Z,0.00
2019-02-10T00:58:06.288Z,0.00
2019-02-10T00:59:38.105Z,0.00
2019-02-10T01:01:09.918Z,0.00
2019-02-10T01:02:41.732Z,0.00
2019-02-10T01:04:13.547Z,0.00
2019-02-10T01:05:45.360Z,0.00
2019-02-10T01:07:17.175Z,0.00
2019-02-10T01:08:49.496Z,0.00
2019-02-10T01:10:20.805Z,0.00
2019-02-10T01:11:52.721Z,0.00
2019-02-10T01:13:24.433Z,0.00
2019-02-10T01:14:56.246Z,0.00
2019-02-10T01:16:28.060Z,0.00
2019-02-10T01:17:59.874Z,0.00
2019-02-10T01:19:31.688Z,0.00
2019-02-10T01:21:03.503Z,0.00
2019-02-10T01:22:35.316Z,0.00
2019-02-10T01:24:07.131Z,0.00
2019-02-10T01:25:38.945Z,0.00
2019-02-10T01:27:10.757Z,0.00
2019-02-10T01:28:42.573Z,0.00
2019-02-10T01:30:14.786Z,0.00
2019-02-10T01:31:46.200Z,0.00
2019-02-10T01:33:18.019Z,0.00
2019-02-10T01:34:49.827Z,0.00
2019-02-10T01:36:21.641Z,0.00
2019-02-10T01:37:53.455Z,0.00
2019-02-10T01:39:25.279Z,0.00
2019-02-10T01:40:57.086Z,0.00
2019-02-10T01:42:28.898Z,0.00
2019-02-10T01:44:00.714Z,0.00
2019-02-10T01:45:32.526Z,0.00
2019-02-10T01:47:04.340Z,0.00
2019-02-10T01:48:36.254Z,0.00
2019-02-10T01:50:08.016Z,0.00
2019-02-10T01:51:39.782Z,0.00
2019-02-10T01:53:11.599Z,0.00
2019-02-10T01:54:43.410Z,0.00
2019-02-10T01:56:15.226Z,0.00
2019-02-10T01:57:47.038Z,0.00
2019-02-10T01:59:18.853Z,0.00
2019-02-10T02:00:50.668Z,0.00
2019-02-10T02:02:22.482Z,0.00
2019-02-10T02:03:54.296Z,0.00
2019-02-10T02:05:26.110Z,0.00
2019-02-10T02:06:58.259Z,0.00
2019-02-10T02:08:29.739Z,0.00
2019-02-10T02:10:01.555Z,0.00
2019-02-10T02:11:33.368Z,0.00
2019-02-10T02:13:05.180Z,0.00
2019-02-10T02:14:36.993Z,0.00
2019-02-10T02:16:08.809Z,0.00
2019-02-10T02:17:40.623Z,0.00
2019-02-10T02:19:12.436Z,0.00
2019-02-10T02:20:44.251Z,0.00
2019-02-10T02:22:16.097Z,0.00
2019-02-10T02:23:48.186Z,0.00
2019-02-10T02:25:19.793Z,0.00
2019-02-10T02:26:51.508Z,0.00
2019-02-10T02:28:23.322Z,0.00
2019-02-10T02:29:55.139Z,0.00
2019-02-10T02:31:26.950Z,0.00
2019-02-10T02:32:58.766Z,0.00
2019-02-10T02:34:30.578Z,0.00
2019-02-10T02:36:02.391Z,0.00
2019-02-10T02:37:34.206Z,0.00
2019-02-10T02:39:06.020Z,0.00
2019-02-10T02:40:37.834Z,0.00
2019-02-10T02:42:09.647Z,0.00
2019-02-10T02:43:41.584Z,0.00
2019-02-10T02:45:13.282Z,0.00
2019-02-10T02:46:45.088Z,0.00
2019-02-10T02:48:16.903Z,0.00
2019-02-10T02:49:48.717Z,0.00
2019-02-10T02:51:20.531Z,0.00
2019-02-10T02:52:52.347Z,0.00
2019-02-10T02:54:24.159Z,0.00
2019-02-10T02:55:55.972Z,0.00
2019-02-10T02:57:27.786Z,0.00
2019-02-10T02:58:59.602Z,0.00
2019-02-10T03:00:31.419Z,0.00
2019-02-10T03:02:03.329Z,0.00
2019-02-10T03:03:35.061Z,0.00
2019-02-10T03:05:06.857Z,0.00
2019-02-10T03:06:38.672Z,0.00
2019-02-10T03:08:10.488Z,0.00
2019-02-10T03:09:42.299Z,0.00
2019-02-10T03:11:14.113Z,0.00
2019-02-10T03:12:45.928Z,0.00
2019-02-10T03:14:17.742Z,0.00
2019-02-10T03:15:49.556Z,0.00
2019-02-10T03:17:21.369Z,0.00
2019-02-10T03:18:53.552Z,0.00
2019-02-10T03:20:25.174Z,0.00
2019-02-10T03:21:56.811Z,0.00
2019-02-10T03:23:28.624Z,0.00
2019-02-10T03:25:00.570Z,0.00
2019-02-10T03:26:32.252Z,0.00
2019-02-10T03:28:04.065Z,0.00
2019-02-10T03:29:35.880Z,0.00
2019-02-10T03:31:07.693Z,0.00
2019-02-10T03:32:39.508Z,0.00
2019-02-10T03:34:11.324Z,0.00
2019-02-10T03:35:43.136Z,0.00
2019-02-10T03:37:14.950Z,0.00
2019-02-10T03:38:46.863Z,0.00
2019-02-10T03:40:18.575Z,0.00
2019-02-10T03:41:50.389Z,0.00
2019-02-10T03:43:22.203Z,0.00
2019-02-10T03:44:54.016Z,0.00
2019-02-10T03:46:25.833Z,0.00
2019-02-10T03:47:57.643Z,0.00
2019-02-10T03:49:29.457Z,0.00
2019-02-10T03:51:01.271Z,0.00
2019-02-10T03:52:33.089Z,0.00
2019-02-10T03:54:04.898Z,0.00
2019-02-10T03:55:36.712Z,0.00
2019-02-10T03:57:08.627Z,0.00
2019-02-10T03:58:40.338Z,0.00
2019-02-10T04:00:12.151Z,0.00
2019-02-10T04:01:43.966Z,0.00
2019-02-10T04:03:15.779Z,0.00
2019-02-10T04:04:47.600Z,0.00
2019-02-10T04:06:19.405Z,0.00
2019-02-10T04:07:51.219Z,0.00
2019-02-10T04:09:23.032Z,0.00
2019-02-10T04:10:54.848Z,0.00
2019-02-10T04:12:26.665Z,0.00
2019-02-10T04:13:58.471Z,0.00
2019-02-10T04:15:30.386Z,0.00
2019-02-10T04:17:02.101Z,0.00
2019-02-10T04:18:33.911Z,0.00
2019-02-10T04:20:05.733Z,0.00
2019-02-10T04:21:37.539Z,0.00
2019-02-10T04:23:09.356Z,0.00
2019-02-10T04:24:41.167Z,0.00
2019-02-10T04:26:12.976Z,0.00
2019-02-10T04:27:44.790Z,0.00
2019-02-10T04:29:16.607Z,0.00
2019-02-10T04:30:48.416Z,0.00
2019-02-10T04:32:20.231Z,0.00
2019-02-10T04:33:52.142Z,0.00
2019-02-10T04:35:23.855Z,0.00
2019-02-10T04:36:55.669Z,0.00
2019-02-10T04:38:27.481Z,0.00
2019-02-10T04:39:59.300Z,0.00
2019-02-10T04:41:31.108Z,0.00
2019-02-10T04:43:02.923Z,0.00
2019-02-10T04:44:34.736Z,0.00
2019-02-10T04:46:06.550Z,0.00
2019-02-10T04:47:38.361Z,0.00
2019-02-10T04:49:10.172Z,0.00
2019-02-10T04:50:41.985Z,0.00
2019-02-10T04:52:14.149Z,0.00
2019-02-10T04:53:45.611Z,0.00
2019-02-10T04:55:17.425Z,0.00
2019-02-10T04:56:49.237Z,0.00
2019-02-10T04:58:21.151Z,0.00
2019-02-10T04:59:52.863Z,0.00
2019-02-10T05:01:24.676Z,0.00
2019-02-10T05:02:56.489Z,0.00
2019-02-10T05:04:28.303Z,0.00
2019-02-10T05:06:00.115Z,0.00
2019-02-10T05:07:31.928Z,0.00
2019-02-10T05:09:03.742Z,0.00
2019-02-10T05:10:35.656Z,0.00
2019-02-10T05:12:07.369Z,0.00
2019-02-10T05:13:39.187Z,0.00
2019-02-10T05:15:10.993Z,0.00
2019-02-10T05:16:44.892Z,0.00
2019-02-10T05:18:14.621Z,0.00
2019-02-10T05:19:46.433Z,0.00
2019-02-10T05:21:18.248Z,0.00
2019-02-10T05:22:50.061Z,0.00
2019-02-10T05:24:21.873Z,0.00
2019-02-10T05:25:53.691Z,0.00
2019-02-10T05:27:25.503Z,0.00
2019-02-10T05:28:57.412Z,0.00
2019-02-10T05:30:29.126Z,0.00
2019-02-10T05:32:00.938Z,0.00
2019-02-10T05:33:32.754Z,0.00
2019-02-10T05:35:04.566Z,0.00
2019-02-10T05:36:36.377Z,0.00
2019-02-10T05:38:08.191Z,0.00
2019-02-10T05:39:40.004Z,0.00
2019-02-10T05:41:11.817Z,0.00
2019-02-10T05:42:43.630Z,0.00
2019-02-10T05:44:15.443Z,0.00
2019-02-10T05:45:47.256Z,0.00
2019-02-10T05:47:19.511Z,0.00
2019-02-10T05:48:50.885Z,0.00
2019-02-10T05:50:22.699Z,0.00
2019-02-10T05:51:54.508Z,0.00
2019-02-10T05:53:26.333Z,0.00
2019-02-10T05:54:58.133Z,0.00
2019-02-10T05:56:29.946Z,0.00
2019-02-10T05:58:01.764Z,0.00
2019-02-10T05:59:33.571Z,0.00
2019-02-10T06:01:05.385Z,0.00
2019-02-10T06:02:37.197Z,0.00
2019-02-10T06:04:09.014Z,0.00
2019-02-10T06:05:40.923Z,0.00
2019-02-10T06:07:12.637Z,0.00
2019-02-10T06:08:44.456Z,0.00
2019-02-10T06:10:16.265Z,0.00
2019-02-10T06:11:48.075Z,0.00
2019-02-10T06:13:19.889Z,0.00
2019-02-10T06:14:51.702Z,0.00
2019-02-10T06:16:23.517Z,0.00
2019-02-10T06:17:55.328Z,0.00
2019-02-10T06:19:27.141Z,0.00
2019-02-10T06:20:58.954Z,0.00
2019-02-10T06:22:30.767Z,0.00
2019-02-10T06:24:02.681Z,0.00
2019-02-10T06:25:34.393Z,0.00
2019-02-10T06:27:06.207Z,0.00
2019-02-10T06:28:38.019Z,0.00
2019-02-10T06:30:09.832Z,0.00
2019-02-10T06:31:41.645Z,0.00
2019-02-10T06:33:13.459Z,0.00
2019-02-10T06:34:45.273Z,0.00
2019-02-10T06:36:17.085Z,0.00
2019-02-10T06:39:20.713Z,0.00
2019-02-10T06:40:52.525Z,0.00
2019-02-10T06:42:24.437Z,0.00
2019-02-10T06:43:56.152Z,0.00
2019-02-10T06:45:27.964Z,0.00
2019-02-10T06:46:59.779Z,0.00
2019-02-10T06:48:31.589Z,0.00
2019-02-10T06:50:03.405Z,0.00
2019-02-10T06:51:35.216Z,0.00
2019-02-10T06:53:07.031Z,0.00
2019-02-10T06:54:38.942Z,0.00
2019-02-10T06:56:10.656Z,0.00
2019-02-10T06:57:42.467Z,0.00
2019-02-10T06:59:14.281Z,0.00
2019-02-10T07:00:46.195Z,0.00
2019-02-10T07:02:17.907Z,0.00
2019-02-10T07:03:49.720Z,0.00
2019-02-10T07:05:21.533Z,0.00
2019-02-10T07:06:53.346Z,0.00
2019-02-10T07:08:30.371Z,0.00
2019-02-10T07:09:57.013Z,0.00
2019-02-10T07:11:28.785Z,0.00
2019-02-10T07:13:00.600Z,0.00
2019-02-10T07:14:32.411Z,0.00
2019-02-10T07:16:04.224Z,0.00
2019-02-10T07:17:36.037Z,0.00
2019-02-10T07:19:07.952Z,0.00
2019-02-10T07:20:39.665Z,0.00
2019-02-10T07:22:11.476Z,0.00
2019-02-10T07:23:43.292Z,0.00
2019-02-10T07:25:15.106Z,0.00
2019-02-10T07:26:46.915Z,0.00
2019-02-10T07:28:18.728Z,0.00
2019-02-10T07:29:50.541Z,0.00
2019-02-10T07:31:22.354Z,0.00
2019-02-10T07:32:54.169Z,0.00
2019-02-10T07:34:25.983Z,0.00
2019-02-10T07:35:57.792Z,0.00
2019-02-10T07:37:29.706Z,0.00
2019-02-10T07:39:01.418Z,0.00
2019-02-10T07:40:33.284Z,0.00
2019-02-10T07:42:05.044Z,0.00
2019-02-10T07:43:36.857Z,0.00
2019-02-10T07:45:08.727Z,0.00
2019-02-10T07:46:40.483Z,0.00
2019-02-10T07:48:12.296Z,0.00
2019-02-10T07:49:44.109Z,0.00
2019-02-10T07:51:15.923Z,0.00
2019-02-10T07:52:47.735Z,0.00
2019-02-10T07:54:19.550Z,0.00
2019-02-10T07:55:51.611Z,0.00
2019-02-10T07:57:23.175Z,0.00
2019-02-10T07:58:54.986Z,0.00
2019-02-10T08:00:26.799Z,0.00
2019-02-10T08:01:58.612Z,0.00
2019-02-10T08:03:30.428Z,0.00
2019-02-10T08:05:02.238Z,0.00
2019-02-10T08:06:34.051Z,0.00
2019-02-10T08:08:05.873Z,0.00
2019-02-10T08:09:37.676Z,0.00
2019-02-10T08:11:09.489Z,0.00
2019-02-10T08:12:41.302Z,0.00
2019-02-10T08:14:13.214Z,0.00
2019-02-10T08:15:44.926Z,0.00
2019-02-10T08:17:16.739Z,0.00
2019-02-10T08:18:48.553Z,0.00
2019-02-10T08:20:20.365Z,0.00
2019-02-10T08:21:52.177Z,0.00
2019-02-10T08:23:23.989Z,0.00
2019-02-10T08:24:55.803Z,0.00
2019-02-10T08:26:28.602Z,0.00
2019-02-10T08:27:59.427Z,0.00
2019-02-10T08:29:31.248Z,0.00
2019-02-10T08:31:03.052Z,0.00
2019-02-10T08:32:35.316Z,0.00
2019-02-10T08:34:06.679Z,0.00
2019-02-10T08:35:38.491Z,0.00
2019-02-10T08:37:10.303Z,0.00
2019-02-10T08:38:42.116Z,0.00
2019-02-10T08:40:13.929Z,0.00
2019-02-10T08:41:45.742Z,5.63
2019-02-10T08:43:17.555Z,5.63
2019-02-10T08:44:49.366Z,5.63
2019-02-10T08:46:21.179Z,11.25
2019-02-10T08:47:52.991Z,11.25
2019-02-10T08:49:25.695Z,16.88
2019-02-10T08:50:56.721Z,16.88
2019-02-10T08:52:28.429Z,22.50
2019-02-10T08:54:00.242Z,28.13
2019-02-10T08:55:32.055Z,28.13
2019-02-10T08:57:04.118Z,33.75
2019-02-10T08:58:35.681Z,45.00
2019-02-10T09:01:39.307Z,61.88
2019-02-10T09:03:11.122Z,61.88
2019-02-10T09:04:42.940Z,73.13
2019-02-10T09:06:14.746Z,78.75
2019-02-10T09:07:46.564Z,90.00
2019-02-10T09:09:18.473Z,101.25
2019-02-10T09:10:50.187Z,112.50
2019-02-10T09:12:22.004Z,118.13
2019-02-10T09:13:53.814Z,123.75
2019-02-10T09:15:25.630Z,129.38
2019-02-10T09:16:57.444Z,140.63
2019-02-10T09:18:29.258Z,146.25
2019-02-10T09:20:01.073Z,151.88
2019-02-10T09:21:32.887Z,163.13
2019-02-10T09:23:04.702Z,180.00
2019-02-10T09:24:36.517Z,191.25
2019-02-10T09:26:08.333Z,196.88
2019-02-10T09:27:40.550Z,202.50
2019-02-10T09:29:11.964Z,208.13
2019-02-10T09:30:43.780Z,213.75
2019-02-10T09:32:15.602Z,219.38
2019-02-10T09:33:47.413Z,225.00
2019-02-10T09:35:19.229Z,225.00
2019-02-10T09:36:51.046Z,230.63
2019-02-10T09:38:22.865Z,236.25
2019-02-10T09:39:54.680Z,236.25
2019-02-10T09:41:26.498Z,241.88
2019-02-10T09:42:58.314Z,247.50
2019-02-10T09:44:30.131Z,253.13
2019-02-10T09:46:02.050Z,258.75
2019-02-10T09:47:33.765Z,264.38
2019-02-10T09:50:37.399Z,275.63
2019-02-10T09:52:09.217Z,286.88
2019-02-10T09:53:41.041Z,292.50
2019-02-10T09:55:13.168Z,303.75
2019-02-10T09:56:44.667Z,303.75
2019-02-10T09:58:16.485Z,309.38
2019-02-10T10:01:20.121Z,331.88
2019-02-10T10:02:51.937Z,331.88
2019-02-10T10:04:23.856Z,326.25
2019-02-10T10:05:55.572Z,331.88
2019-02-10T10:07:27.597Z,326.25
2019-02-10T10:08:59.745Z,331.88
2019-02-10T10:10:31.028Z,343.13
2019-02-10T10:12:03.382Z,337.50
2019-02-10T10:13:34.664Z,343.13
2019-02-10T10:15:06.484Z,348.75
2019-02-10T10:18:10.121Z,365.63
2019-02-10T10:19:41.939Z,360.00
2019-02-10T10:21:13.759Z,365.63
2019-02-10T10:22:45.578Z,393.75
2019-02-10T10:24:17.497Z,388.13
2019-02-10T10:25:49.220Z,399.38
2019-02-10T10:27:21.238Z,410.63
2019-02-10T10:28:52.859Z,427.50
2019-02-10T10:30:24.674Z,450.00
2019-02-10T10:31:56.494Z,461.25
2019-02-10T10:33:28.315Z,472.50
2019-02-10T10:35:00.193Z,478.13
2019-02-10T10:36:31.954Z,483.75
2019-02-10T10:38:03.775Z,489.38
2019-02-10T10:39:35.596Z,500.63
2019-02-10T10:41:07.417Z,500.63
2019-02-10T10:42:39.339Z,511.88
2019-02-10T10:44:11.263Z,523.13
2019-02-10T10:45:42.884Z,523.13
2019-02-10T10:47:14.703Z,523.13
2019-02-10T10:48:46.524Z,534.38
2019-02-10T10:50:18.346Z,534.38
2019-02-10T10:53:21.991Z,540.00
2019-02-10T10:54:53.914Z,540.00
2019-02-10T10:56:25.637Z,540.00
2019-02-10T10:57:57.461Z,545.63
2019-02-10T10:59:29.283Z,540.00
2019-02-10T11:01:01.206Z,540.00
2019-02-10T11:02:33.234Z,540.00
2019-02-10T11:04:04.755Z,540.00
2019-02-10T11:05:36.578Z,545.63
2019-02-10T11:07:08.399Z,545.63
2019-02-10T11:08:40.223Z,545.63
2019-02-10T11:10:12.049Z,562.50
2019-02-10T11:11:43.869Z,573.75
2019-02-10T11:13:15.693Z,579.38
2019-02-10T11:14:47.519Z,590.63
2019-02-10T11:16:19.347Z,607.50
2019-02-10T11:19:23.294Z,613.13
2019-02-10T11:20:55.119Z,624.38
2019-02-10T11:22:26.638Z,613.13
2019-02-10T11:23:58.463Z,635.63
2019-02-10T11:25:30.288Z,635.63
2019-02-10T11:27:02.112Z,630.00
2019-02-10T11:28:33.935Z,624.38
2019-02-10T11:30:06.063Z,646.88
2019-02-10T11:31:37.585Z,658.13
2019-02-10T11:33:09.408Z,663.75
2019-02-10T11:34:46.049Z,669.38
2019-02-10T11:37:45.809Z,686.25
2019-02-10T11:39:16.707Z,697.50
2019-02-10T11:40:48.532Z,703.13
2019-02-10T11:42:20.358Z,714.38
2019-02-10T11:43:52.495Z,731.25
2019-02-10T11:45:24.007Z,753.75
2019-02-10T11:46:55.836Z,770.63
2019-02-10T11:48:27.658Z,804.38
2019-02-10T11:49:59.483Z,810.00
2019-02-10T11:51:31.311Z,821.25
2019-02-10T11:53:03.134Z,826.88
2019-02-10T11:54:35.170Z,849.38
2019-02-10T11:56:06.887Z,838.13
2019-02-10T11:57:38.611Z,860.63
2019-02-10T11:59:10.438Z,860.63
2019-02-10T12:00:42.266Z,894.38
2019-02-10T12:02:14.093Z,787.50
2019-02-10T12:05:17.746Z,973.13
2019-02-10T12:06:49.772Z,1001.25
2019-02-10T12:08:21.413Z,967.50
2019-02-10T12:11:25.050Z,1029.38
2019-02-10T12:12:57.078Z,1080.00
2019-02-10T12:14:29.110Z,1102.50
2019-02-10T12:16:00.530Z,1141.88
2019-02-10T12:17:32.358Z,1153.13
2019-02-10T12:19:04.184Z,1192.50
2019-02-10T12:20:36.013Z,1175.63
2019-02-10T12:22:07.843Z,1164.38
2019-02-10T12:23:39.668Z,1209.38
2019-02-10T12:25:11.495Z,1231.88
2019-02-10T12:26:43.323Z,1288.13
2019-02-10T12:28:15.151Z,1299.38
2019-02-10T12:29:46.979Z,1333.13
2019-02-10T12:31:18.850Z,1316.25
2019-02-10T12:32:51.236Z,1355.63
2019-02-10T12:34:22.466Z,1383.75
2019-02-10T12:37:32.207Z,1428.75
2019-02-10T12:38:57.954Z,1501.88
2019-02-10T12:40:29.777Z,1490.63
2019-02-10T12:42:01.601Z,1428.75
2019-02-10T12:43:33.429Z,1496.25
2019-02-10T12:45:05.257Z,1501.88
2019-02-10T12:46:37.098Z,1541.25
2019-02-10T12:48:08.940Z,1614.38
2019-02-10T12:49:40.755Z,1653.75
2019-02-10T12:51:12.671Z,1676.25
2019-02-10T12:52:44.400Z,1693.13
2019-02-10T12:54:16.273Z,1743.75
2019-02-10T12:55:48.593Z,1698.75
2019-02-10T12:57:19.886Z,1777.50
2019-02-10T12:58:51.716Z,1743.75
2019-02-10T13:00:23.550Z,1771.88
2019-02-10T13:01:55.680Z,1822.50
2019-02-10T13:03:27.205Z,1811.25
2019-02-10T13:04:59.037Z,1822.50
2019-02-10T13:06:30.865Z,1867.50
2019-02-10T13:08:03.133Z,1940.63
2019-02-10T13:09:34.626Z,1957.50
2019-02-10T13:12:38.186Z,2064.38
2019-02-10T13:14:10.018Z,2008.13
2019-02-10T13:15:41.846Z,2126.25
2019-02-10T13:17:13.676Z,2154.38
2019-02-10T13:18:45.506Z,2171.25
2019-02-10T13:20:17.337Z,2148.75
2019-02-10T13:21:49.166Z,2103.75
2019-02-10T13:23:20.999Z,2165.63
2019-02-10T13:24:53.131Z,2193.75
2019-02-10T13:26:24.657Z,2154.38
2019-02-10T13:27:56.587Z,2143.13
2019-02-10T13:29:28.317Z,2278.13
2019-02-10T13:31:00.147Z,2261.25
2019-02-10T13:32:31.977Z,2165.63
2019-02-10T13:34:03.813Z,2418.75
2019-02-10T13:35:35.638Z,2480.63
2019-02-10T13:38:39.299Z,2508.75
2019-02-10T13:40:16.461Z,2413.13
2019-02-10T13:41:42.960Z,2064.38
2019-02-10T13:43:14.791Z,1530.00
2019-02-10T13:44:46.622Z,2604.38
2019-02-10T13:46:18.552Z,2705.63
2019-02-10T13:47:51.657Z,2806.88
2019-02-10T13:49:22.112Z,2913.75
2019-02-10T13:50:53.943Z,2953.13
2019-02-10T13:52:25.774Z,2778.75
2019-02-10T13:53:57.605Z,2638.13
2019-02-10T13:57:01.269Z,3110.63
2019-02-10T13:58:33.100Z,2998.13
2019-02-10T14:00:04.933Z,3144.38
2019-02-10T14:01:36.767Z,3211.88
2019-02-10T14:03:08.598Z,3217.50
2019-02-10T14:04:40.531Z,1501.88
2019-02-10T14:06:12.264Z,3296.25
2019-02-10T14:09:15.929Z,3369.38
2019-02-10T14:10:47.763Z,2182.50
2019-02-10T14:12:19.595Z,1260.00
2019-02-10T14:13:51.426Z,1164.38
2019-02-10T14:15:23.257Z,1288.13
2019-02-10T14:16:55.288Z,2694.38
2019-02-10T14:18:26.916Z,2581.88
2019-02-10T14:19:58.747Z,2081.25
2019-02-10T14:21:30.574Z,2351.25
2019-02-10T14:23:02.504Z,2559.38
2019-02-10T14:24:34.232Z,2739.38
2019-02-10T14:26:06.061Z,3127.50
2019-02-10T14:27:37.889Z,2953.13
2019-02-10T14:29:09.719Z,3189.38
2019-02-10T14:30:41.551Z,3200.63
2019-02-10T14:32:13.378Z,3088.13
2019-02-10T14:33:45.211Z,2846.25
2019-02-10T14:35:17.051Z,2880.00
2019-02-10T14:36:48.871Z,3020.63
2019-02-10T14:38:20.706Z,3223.13
2019-02-10T14:41:24.467Z,3290.63
2019-02-10T14:42:56.400Z,3015.00
2019-02-10T14:44:28.030Z,2480.63
2019-02-10T14:45:59.862Z,2520.00
2019-02-10T14:47:31.693Z,3150.00
2019-02-10T14:49:03.523Z,3403.13
2019-02-10T14:50:35.355Z,3296.25
2019-02-10T14:53:39.017Z,2536.88
2019-02-10T14:55:11.384Z,2283.75
2019-02-10T14:56:42.993Z,2165.63
2019-02-10T14:58:14.514Z,2227.50
2019-02-10T14:59:46.437Z,3886.88
2019-02-10T15:01:18.167Z,3881.25
2019-02-10T15:05:53.658Z,3526.88
2019-02-10T15:07:25.604Z,3498.75
2019-02-10T15:08:57.318Z,3245.63
2019-02-10T15:12:01.187Z,2863.13
2019-02-10T15:13:33.116Z,3605.63
2019-02-10T15:15:04.643Z,3313.13
2019-02-10T15:16:36.475Z,3251.25
2019-02-10T15:18:08.406Z,3549.38
2019-02-10T15:19:40.138Z,3684.38
2019-02-10T15:21:11.969Z,3667.50
2019-02-10T15:22:43.801Z,3667.50
2019-02-10T15:24:15.634Z,3898.13
2019-02-10T15:25:47.467Z,3791.25
2019-02-10T15:27:19.299Z,3723.75
2019-02-10T15:30:22.966Z,3605.63
2019-02-10T15:31:54.798Z,3442.50
2019-02-10T15:33:26.631Z,3892.50
2019-02-10T15:34:58.466Z,3706.88
2019-02-10T15:36:30.398Z,3510.00
2019-02-10T15:38:02.665Z,3903.75
2019-02-10T15:39:33.962Z,4168.13
2019-02-10T15:41:05.794Z,4111.88
2019-02-10T15:42:37.626Z,4100.63
2019-02-10T15:44:09.457Z,4010.63
2019-02-10T15:45:41.290Z,3886.88
2019-02-10T15:48:44.956Z,4151.25
2019-02-10T15:50:16.790Z,4145.63
2019-02-10T15:51:48.826Z,4269.38
2019-02-10T15:53:20.456Z,4393.13
2019-02-10T15:56:24.224Z,4235.63
2019-02-10T15:57:55.959Z,4421.25
2019-02-10T15:59:27.799Z,1170.00
2019-02-10T16:00:59.626Z,4246.88
2019-02-10T16:02:31.459Z,1096.88
2019-02-10T16:04:03.291Z,4545.00
2019-02-10T16:05:35.120Z,4522.50
2019-02-10T16:07:06.953Z,4376.25
2019-02-10T16:08:38.783Z,4190.63
2019-02-10T16:10:10.616Z,4443.75
2019-02-10T16:11:42.445Z,3166.88
2019-02-10T16:13:14.278Z,4668.75
2019-02-10T16:14:46.209Z,4393.13
2019-02-10T16:16:17.940Z,3481.88
2019-02-10T16:17:49.974Z,4646.25
2019-02-10T16:19:21.911Z,4488.75
2019-02-10T16:20:53.441Z,4398.75
2019-02-10T16:22:25.288Z,939.38
2019-02-10T16:23:57.100Z,815.63
2019-02-10T16:25:28.931Z,798.75
2019-02-10T16:27:00.760Z,849.38
2019-02-10T16:28:32.588Z,916.88
2019-02-10T16:30:04.419Z,1215.00
2019-02-10T16:31:36.242Z,4162.50
2019-02-10T16:33:08.169Z,4618.13
2019-02-10T16:34:39.896Z,4505.63
2019-02-10T16:36:11.724Z,4539.38
2019-02-10T16:37:43.554Z,4213.13
2019-02-10T16:39:15.483Z,4398.75
2019-02-10T16:40:47.212Z,1192.50
2019-02-10T16:42:19.042Z,4348.13
2019-02-10T16:45:22.700Z,1372.50
2019-02-10T16:46:54.530Z,4567.50
2019-02-10T16:48:26.360Z,4331.25
2019-02-10T16:49:58.190Z,4516.88
2019-02-10T16:51:30.122Z,4325.63
2019-02-10T16:53:01.846Z,4522.50
2019-02-10T16:54:33.677Z,4449.38
2019-02-10T16:56:05.508Z,4578.75
2019-02-10T16:57:37.336Z,4404.38
2019-02-10T16:59:09.168Z,4421.25
2019-02-10T17:00:41.000Z,4393.13
2019-02-10T17:02:12.830Z,4500.00
2019-02-10T17:03:44.915Z,4404.38
2019-02-10T17:05:16.493Z,4410.00
2019-02-10T17:06:48.862Z,4393.13
2019-02-10T17:08:20.156Z,4438.13
2019-02-10T17:09:52.825Z,4494.38
2019-02-10T17:11:24.129Z,4190.63
2019-02-10T17:14:27.686Z,4488.75
2019-02-10T17:16:04.899Z,4460.63
2019-02-10T17:17:31.142Z,4646.25
2019-02-10T17:19:02.973Z,4668.75
2019-02-10T17:20:35.109Z,4522.50
2019-02-10T17:22:06.636Z,4393.13
2019-02-10T17:23:38.468Z,4522.50
2019-02-10T17:25:10.304Z,4488.75
2019-02-10T17:26:42.128Z,4471.88
2019-02-10T17:28:14.061Z,4432.50
2019-02-10T17:29:45.792Z,4663.13
2019-02-10T17:31:17.624Z,4691.25
2019-02-10T17:34:21.538Z,4342.50
2019-02-10T17:35:53.323Z,3971.25
2019-02-10T17:37:24.952Z,4387.50
2019-02-10T17:38:56.794Z,4381.88
2019-02-10T17:40:28.616Z,4545.00
2019-02-10T17:42:00.447Z,3296.25
2019-02-10T17:43:32.286Z,4128.75
2019-02-10T17:45:04.110Z,888.75
2019-02-10T17:46:36.041Z,883.13
2019-02-10T17:48:07.770Z,4196.25
2019-02-10T17:49:39.598Z,4156.88
2019-02-10T17:51:11.427Z,4308.75
2019-02-10T17:52:43.256Z,4387.50
2019-02-10T17:54:15.085Z,4370.63
2019-02-10T17:55:46.914Z,4258.13
2019-02-10T17:57:18.746Z,4235.63
2019-02-10T17:58:50.879Z,4275.00
2019-02-10T18:00:22.405Z,4410.00
2019-02-10T18:01:54.438Z,1299.38
2019-02-10T18:03:26.065Z,1012.50
2019-02-10T18:06:29.825Z,3043.13
2019-02-10T18:08:01.553Z,4269.38
2019-02-10T18:09:33.383Z,4190.63
2019-02-10T18:12:37.039Z,4213.13
2019-02-10T18:14:08.867Z,4230.00
2019-02-10T18:15:40.699Z,4230.00
2019-02-10T18:17:12.525Z,4168.13
2019-02-10T18:18:45.484Z,3937.50
2019-02-10T18:21:48.014Z,3931.88
2019-02-10T18:23:20.048Z,3841.88
2019-02-10T18:24:51.772Z,3571.88
2019-02-10T18:26:23.502Z,3650.63
2019-02-10T18:27:55.332Z,1215.00
2019-02-10T18:29:27.166Z,3268.13
2019-02-10T18:30:59.190Z,1074.38
2019-02-10T18:32:30.851Z,995.63
2019-02-10T18:34:02.646Z,1001.25
2019-02-10T18:35:34.471Z,2745.00
2019-02-10T18:37:06.298Z,1248.75
2019-02-10T18:38:38.127Z,1788.75
2019-02-10T18:40:10.487Z,3245.63
2019-02-10T18:41:41.780Z,3408.75
2019-02-10T18:43:13.705Z,3279.38
2019-02-10T18:44:45.736Z,3420.00
2019-02-10T18:46:17.258Z,3397.50
2019-02-10T18:47:49.085Z,3408.75
2019-02-10T18:49:20.915Z,3420.00
2019-02-10T18:50:52.741Z,3515.63
2019-02-10T18:52:24.569Z,3588.75
2019-02-10T18:53:56.398Z,3616.88
2019-02-10T18:55:28.226Z,3667.50
2019-02-10T18:57:00.058Z,3521.25
2019-02-10T18:58:31.885Z,3487.50
2019-02-10T19:00:03.716Z,3324.38
2019-02-10T19:01:35.643Z,3172.50
2019-02-10T19:03:07.373Z,2930.63
2019-02-10T19:04:39.200Z,3110.63
2019-02-10T19:06:11.030Z,826.88
2019-02-10T19:07:42.859Z,877.50
2019-02-10T19:09:14.691Z,2019.38
2019-02-10T19:10:46.602Z,3037.50
2019-02-10T19:12:18.340Z,3003.75
2019-02-10T19:13:50.472Z,2919.38
2019-02-10T19:15:21.996Z,2570.63
2019-02-10T19:16:53.821Z,2463.75
2019-02-10T19:18:25.647Z,2514.38
2019-02-10T19:19:57.579Z,2784.38
2019-02-10T19:21:29.300Z,2576.25
2019-02-10T19:23:01.126Z,2666.25
2019-02-10T19:24:32.952Z,2767.50
2019-02-10T19:26:04.880Z,2643.75
2019-02-10T19:27:36.605Z,2621.25
2019-02-10T19:29:08.432Z,2688.75
2019-02-10T19:30:40.260Z,2480.63
2019-02-10T19:32:12.085Z,1726.88
2019-02-10T19:33:43.911Z,2576.25
2019-02-10T19:35:15.738Z,2649.38
2019-02-10T19:36:47.563Z,2491.88
2019-02-10T19:38:19.491Z,2036.25
2019-02-10T19:39:51.216Z,2317.50
2019-02-10T19:41:23.041Z,2289.38
2019-02-10T19:42:55.070Z,2446.88
2019-02-10T19:44:26.693Z,2306.25
2019-02-10T19:45:58.518Z,2362.50
2019-02-10T19:47:30.344Z,2362.50
2019-02-10T19:49:02.169Z,2126.25
2019-02-10T19:50:34.094Z,1783.13
2019-02-10T19:52:05.820Z,1777.50
2019-02-10T19:53:37.646Z,1710.00
2019-02-10T19:55:09.471Z,1653.75
2019-02-10T19:56:41.550Z,1693.13
2019-02-10T19:58:13.119Z,1940.63
2019-02-10T19:59:44.944Z,2081.25
2019-02-10T20:01:16.769Z,1884.38
2019-02-10T20:04:20.419Z,1935.00
2019-02-10T20:05:53.661Z,1766.25
2019-02-10T20:07:24.071Z,1580.63
2019-02-10T20:12:04.238Z,1198.13
2019-02-10T20:13:31.369Z,1271.25
2019-02-10T20:15:03.192Z,1485.00